Powell Butte, Oregon
Current Conditions -  °F | °C
As of 3:15 AM on Monday 22 Dec 2014 (Local Time) from KS39 Reporting Station
Overcast Overcast  
Wind Chill: 43°   Ceiling: 3000
Heat Index: 43°   Visibility: 10mi
Dew Point: 41°   Wind: 0mph
Humidity: 93%   Direction: NA
Pressure: 30.15"   Gusts: NA
Location:  44.25°N, 121.02°W
Report Text: KS39 221115Z AUTO 00000KT 10SM OVC030 06/05 A3015 RMK AO2
Loading
Personal Weather Stations






























Interactive Weather Map New forecast layout! Learn more

10-Day Weather Forecast

Advertisements
Track Severe Weather on mobile